createdAt,value
2023-08-27T00:02:27.498Z,5.17
2023-08-27T00:04:56.614Z,4.87
2023-08-27T00:07:25.226Z,4.40
2023-08-27T00:09:53.141Z,4.10
2023-08-27T00:12:21.069Z,3.60
2023-08-27T00:14:50.409Z,3.70
2023-08-27T00:17:18.307Z,4.00
2023-08-27T00:19:46.232Z,3.50
2023-08-27T00:22:14.166Z,3.77
2023-08-27T00:24:42.076Z,3.40
2023-08-27T00:27:09.970Z,3.60
2023-08-27T00:29:37.852Z,3.50
2023-08-27T00:32:19.319Z,3.20
2023-08-27T00:34:52.650Z,3.47
2023-08-27T00:37:21.340Z,3.43
2023-08-27T00:39:49.302Z,3.10
2023-08-27T00:42:17.266Z,3.00
2023-08-27T00:44:45.376Z,2.80
2023-08-27T00:47:16.850Z,2.80
2023-08-27T00:49:45.299Z,2.70
2023-08-27T00:52:14.269Z,3.10
2023-08-27T00:54:42.794Z,3.17
2023-08-27T00:57:11.128Z,2.80
2023-08-27T00:59:39.301Z,3.23
2023-08-27T01:02:07.201Z,2.43
2023-08-27T01:04:36.535Z,2.77
2023-08-27T01:07:12.773Z,3.10
2023-08-27T01:09:48.134Z,3.23
2023-08-27T01:12:25.568Z,3.27
2023-08-27T01:14:55.416Z,3.27
2023-08-27T01:17:24.366Z,3.10
2023-08-27T01:19:53.743Z,3.20
2023-08-27T01:22:23.052Z,3.20
2023-08-27T01:24:50.973Z,3.10
2023-08-27T01:27:28.265Z,3.07
2023-08-27T01:30:04.775Z,2.77
2023-08-27T01:32:39.286Z,2.83
2023-08-27T01:35:12.647Z,2.97
2023-08-27T01:37:42.651Z,3.30
2023-08-27T01:40:11.689Z,3.30
2023-08-27T01:42:41.058Z,3.33
2023-08-27T01:45:11.057Z,3.33
2023-08-27T01:47:39.099Z,3.20
2023-08-27T01:50:08.431Z,2.70
2023-08-27T01:52:37.270Z,3.10
2023-08-27T01:55:08.923Z,3.10
2023-08-27T01:57:37.139Z,3.17
2023-08-27T02:00:10.146Z,2.90
2023-08-27T02:02:43.632Z,3.10
2023-08-27T02:05:12.222Z,3.23
2023-08-27T02:07:41.821Z,3.20
2023-08-27T02:10:11.504Z,3.17
2023-08-27T02:12:39.472Z,3.47
2023-08-27T02:15:08.885Z,3.10
2023-08-27T02:17:39.187Z,3.70
2023-08-27T02:20:11.391Z,3.43
2023-08-27T02:22:39.854Z,3.33
2023-08-27T02:25:08.731Z,3.10
2023-08-27T02:27:38.028Z,3.13
2023-08-27T02:30:07.322Z,3.40
2023-08-27T02:32:37.023Z,3.10
2023-08-27T02:35:05.417Z,3.50
2023-08-27T02:37:33.369Z,3.37
2023-08-27T02:40:01.297Z,3.20
2023-08-27T02:42:29.258Z,3.13
2023-08-27T02:44:58.509Z,3.43
2023-08-27T02:47:26.469Z,3.13
2023-08-27T02:49:56.849Z,3.33
2023-08-27T02:52:24.802Z,3.23
2023-08-27T02:54:52.858Z,4.07
2023-08-27T02:57:20.856Z,3.80
2023-08-27T02:59:49.123Z,3.67
2023-08-27T03:02:18.613Z,4.07
2023-08-27T03:04:46.543Z,4.20
2023-08-27T03:07:15.670Z,3.43
2023-08-27T03:09:43.594Z,3.60
2023-08-27T03:12:11.471Z,3.70
2023-08-27T03:14:39.341Z,3.23
2023-08-27T03:17:07.328Z,3.80
2023-08-27T03:19:36.588Z,3.37
2023-08-27T03:22:04.807Z,3.37
2023-08-27T03:24:32.863Z,3.80
2023-08-27T03:27:00.844Z,3.37
2023-08-27T03:29:30.586Z,3.23
2023-08-27T03:31:58.602Z,3.70
2023-08-27T03:34:26.622Z,3.80
2023-08-27T03:36:55.987Z,3.57
2023-08-27T03:39:24.001Z,3.90
2023-08-27T03:41:51.944Z,3.33
2023-08-27T03:44:19.829Z,3.50
2023-08-27T03:46:47.776Z,3.70
2023-08-27T03:49:15.906Z,4.03
2023-08-27T03:51:45.436Z,3.90
2023-08-27T03:54:15.545Z,4.00
2023-08-27T03:56:43.493Z,3.93
2023-08-27T03:59:11.394Z,4.30
2023-08-27T04:01:39.438Z,3.40
2023-08-27T04:04:07.488Z,3.90
2023-08-27T04:06:35.814Z,3.57
2023-08-27T04:09:05.283Z,3.80
2023-08-27T04:11:34.612Z,3.97
2023-08-27T04:14:02.525Z,3.53
2023-08-27T04:16:31.192Z,3.67
2023-08-27T04:18:59.103Z,4.00
2023-08-27T04:21:27.121Z,3.67
2023-08-27T04:23:56.717Z,3.47
2023-08-27T04:26:25.318Z,4.30
2023-08-27T04:28:56.030Z,4.33
2023-08-27T04:31:24.042Z,4.17
2023-08-27T04:33:52.000Z,3.80
2023-08-27T04:36:21.202Z,4.43
2023-08-27T04:38:49.084Z,4.03
2023-08-27T04:41:17.044Z,3.90
2023-08-27T04:43:46.244Z,3.97
2023-08-27T04:46:15.602Z,4.10
2023-08-27T04:48:43.587Z,4.07
2023-08-27T04:51:11.552Z,4.43
2023-08-27T04:53:39.480Z,4.00
2023-08-27T04:56:07.442Z,4.63
2023-08-27T04:58:36.384Z,4.03
2023-08-27T05:01:04.624Z,4.23
2023-08-27T05:03:34.379Z,4.20
2023-08-27T05:06:02.384Z,3.73
2023-08-27T05:08:30.341Z,4.03
2023-08-27T05:10:58.412Z,4.50
2023-08-27T05:13:28.092Z,4.30
2023-08-27T05:15:56.038Z,5.47
2023-08-27T05:18:24.141Z,4.37
2023-08-27T05:20:53.581Z,4.87
2023-08-27T05:23:23.829Z,4.27
2023-08-27T05:25:52.031Z,4.17
2023-08-27T05:28:21.028Z,4.33
2023-08-27T05:30:49.037Z,4.30
2023-08-27T05:33:17.319Z,4.40
2023-08-27T05:35:45.344Z,4.27
2023-08-27T05:38:14.705Z,4.70
2023-08-27T05:40:42.746Z,5.93
2023-08-27T05:43:10.644Z,6.40
2023-08-27T05:45:38.561Z,6.67
2023-08-27T05:48:07.849Z,6.57
2023-08-27T05:50:38.024Z,5.23
2023-08-27T05:53:06.239Z,5.60
2023-08-27T05:55:37.311Z,5.00
2023-08-27T05:58:06.471Z,4.30
2023-08-27T06:00:35.571Z,4.50
2023-08-27T06:03:04.881Z,4.37
2023-08-27T06:05:33.228Z,3.80
2023-08-27T06:08:03.996Z,4.07
2023-08-27T06:10:33.078Z,4.50
2023-08-27T06:13:04.496Z,3.60
2023-08-27T06:15:35.597Z,3.27
2023-08-27T06:18:04.904Z,3.50
2023-08-27T06:20:33.292Z,4.63
2023-08-27T06:23:01.824Z,4.10
2023-08-27T06:25:29.733Z,4.30
2023-08-27T06:27:58.291Z,3.90
2023-08-27T06:30:27.837Z,4.80
2023-08-27T06:32:56.292Z,4.30
2023-08-27T06:35:24.926Z,3.97
2023-08-27T06:37:52.829Z,4.40
2023-08-27T06:40:21.008Z,5.10
2023-08-27T06:42:48.982Z,4.53
2023-08-27T06:45:23.065Z,3.77
2023-08-27T06:47:53.071Z,4.77
2023-08-27T06:50:21.226Z,4.57
2023-08-27T06:52:49.346Z,3.90
2023-08-27T06:55:17.501Z,4.47
2023-08-27T06:57:45.500Z,4.20
2023-08-27T07:00:14.422Z,4.80
2023-08-27T07:02:45.197Z,4.63
2023-08-27T07:05:15.238Z,6.17
2023-08-27T07:07:44.069Z,7.57
2023-08-27T07:10:13.091Z,7.30
2023-08-27T07:12:41.813Z,6.03
2023-08-27T07:15:12.035Z,5.10
2023-08-27T07:17:40.902Z,5.93
2023-08-27T07:20:10.309Z,4.90
2023-08-27T07:22:39.711Z,6.37
2023-08-27T07:25:10.069Z,7.70
2023-08-27T07:27:38.778Z,6.10
2023-08-27T07:30:09.020Z,6.37
2023-08-27T07:32:37.910Z,5.03
2023-08-27T07:35:08.656Z,4.93
2023-08-27T07:37:39.758Z,4.83
2023-08-27T07:40:11.798Z,4.60
2023-08-27T07:42:40.135Z,4.80
2023-08-27T07:45:09.090Z,5.10
2023-08-27T07:47:37.507Z,5.83
2023-08-27T07:50:07.173Z,5.30
2023-08-27T07:52:35.158Z,5.77
2023-08-27T07:55:05.381Z,5.80
2023-08-27T07:57:33.376Z,5.63
2023-08-27T08:00:01.371Z,6.90
2023-08-27T08:02:30.497Z,6.40
2023-08-27T08:04:59.675Z,6.27
2023-08-27T08:07:27.703Z,5.93
2023-08-27T08:09:55.753Z,6.73
2023-08-27T08:12:24.986Z,7.20
2023-08-27T08:14:54.124Z,6.30
2023-08-27T08:17:28.863Z,7.63
2023-08-27T08:20:04.866Z,7.00
2023-08-27T08:22:32.819Z,6.80
2023-08-27T08:25:00.992Z,7.90
2023-08-27T08:27:30.240Z,7.80
2023-08-27T08:29:58.250Z,7.57
2023-08-27T08:32:26.112Z,8.00
2023-08-27T08:34:55.175Z,8.03
2023-08-27T08:37:23.378Z,7.60
2023-08-27T08:39:51.586Z,7.10
2023-08-27T08:42:28.654Z,7.70
2023-08-27T08:45:08.664Z,8.47
2023-08-27T08:47:37.857Z,8.20
2023-08-27T08:50:09.387Z,7.30
2023-08-27T08:52:40.665Z,8.50
2023-08-27T08:55:10.613Z,8.30
2023-08-27T08:57:44.558Z,8.80
2023-08-27T09:00:15.177Z,9.20
2023-08-27T09:02:44.827Z,8.90
2023-08-27T09:05:13.446Z,9.17
2023-08-27T09:07:43.879Z,9.20
2023-08-27T09:10:13.634Z,8.63
2023-08-27T09:12:42.845Z,9.47
2023-08-27T09:15:11.576Z,12.17
2023-08-27T09:17:41.096Z,10.63
2023-08-27T09:20:09.839Z,9.07
2023-08-27T09:22:38.965Z,9.27
2023-08-27T09:25:08.032Z,7.87
2023-08-27T09:27:36.116Z,8.63
2023-08-27T09:30:05.651Z,8.37
2023-08-27T09:32:34.746Z,8.17
2023-08-27T09:35:05.789Z,8.27
2023-08-27T09:37:40.310Z,7.73
2023-08-27T09:40:09.505Z,8.00
2023-08-27T09:42:37.979Z,7.13
2023-08-27T09:45:08.085Z,7.03
2023-08-27T09:47:38.199Z,7.90
2023-08-27T09:50:09.613Z,6.57
2023-08-27T09:52:37.535Z,7.87
2023-08-27T09:55:07.156Z,7.07
2023-08-27T09:57:35.078Z,7.40
2023-08-27T10:00:09.434Z,6.90
2023-08-27T10:02:45.113Z,7.77
2023-08-27T10:05:16.702Z,8.23
2023-08-27T10:07:57.255Z,6.90
2023-08-27T10:10:26.050Z,8.30
2023-08-27T10:12:54.503Z,8.40
2023-08-27T10:15:24.421Z,6.60
2023-08-27T10:17:54.480Z,7.03
2023-08-27T10:20:23.833Z,7.57
2023-08-27T10:22:52.283Z,7.33
2023-08-27T10:25:20.527Z,7.50
2023-08-27T10:27:50.229Z,7.80
2023-08-27T10:30:19.931Z,6.80
2023-08-27T10:32:48.446Z,6.90
2023-08-27T10:35:17.667Z,7.47
2023-08-27T10:37:53.160Z,7.40
2023-08-27T10:40:22.802Z,7.63
2023-08-27T10:42:50.778Z,7.77
2023-08-27T10:45:21.523Z,6.63
2023-08-27T10:48:07.719Z,7.73
2023-08-27T10:50:48.049Z,7.27
2023-08-27T10:53:18.354Z,8.40
2023-08-27T10:55:52.265Z,7.80
2023-08-27T10:58:22.241Z,8.03
2023-08-27T11:01:03.452Z,8.10
2023-08-27T11:03:52.820Z,6.80
2023-08-27T11:06:21.406Z,7.70
2023-08-27T11:08:54.025Z,8.53
2023-08-27T11:11:26.240Z,7.60
2023-08-27T11:14:17.628Z,7.73
2023-08-27T11:16:49.646Z,7.43
2023-08-27T11:19:30.995Z,7.60
2023-08-27T11:22:07.721Z,7.53
2023-08-27T11:24:39.871Z,7.03
2023-08-27T11:27:08.183Z,7.27
2023-08-27T11:29:39.591Z,7.20
2023-08-27T11:32:09.026Z,7.30
2023-08-27T11:34:38.179Z,7.07
2023-08-27T11:37:06.680Z,7.23
2023-08-27T11:39:36.187Z,7.97
2023-08-27T11:42:10.486Z,8.07
2023-08-27T11:44:47.380Z,7.90
2023-08-27T11:47:15.299Z,8.07
2023-08-27T11:49:43.230Z,8.00
2023-08-27T11:52:11.268Z,8.20
2023-08-27T11:54:39.181Z,7.57
2023-08-27T11:57:08.575Z,8.10
2023-08-27T11:59:36.546Z,7.60
2023-08-27T12:02:04.894Z,7.80
2023-08-27T12:04:34.071Z,7.70
2023-08-27T12:07:03.722Z,8.90
2023-08-27T12:09:33.053Z,8.83
2023-08-27T12:12:03.668Z,8.40
2023-08-27T12:14:33.068Z,7.57
2023-08-27T12:17:53.744Z,7.30
2023-08-27T12:20:32.588Z,8.13
2023-08-27T12:23:12.017Z,7.60
2023-08-27T12:25:47.332Z,8.13
2023-08-27T12:28:15.380Z,7.30
2023-08-27T12:30:49.182Z,8.03
2023-08-27T12:33:17.133Z,7.97
2023-08-27T12:35:46.032Z,7.37
2023-08-27T12:38:14.447Z,9.07
2023-08-27T12:40:42.447Z,8.03
2023-08-27T12:43:10.365Z,8.33
2023-08-27T12:45:38.304Z,8.60
2023-08-27T12:48:08.385Z,8.47
2023-08-27T12:50:36.374Z,8.37
2023-08-27T12:53:04.563Z,7.97
2023-08-27T12:55:32.515Z,8.77
2023-08-27T12:58:00.597Z,8.47
2023-08-27T13:00:28.810Z,8.70
2023-08-27T13:02:58.016Z,8.10
2023-08-27T13:05:27.646Z,8.50
2023-08-27T13:08:01.709Z,9.47
2023-08-27T13:10:30.062Z,9.23
2023-08-27T13:12:58.112Z,7.77
2023-08-27T13:15:26.278Z,9.47
2023-08-27T13:17:54.280Z,8.70
2023-08-27T13:20:22.432Z,8.20
2023-08-27T13:22:51.640Z,9.03
2023-08-27T13:25:19.503Z,8.63
2023-08-27T13:27:47.890Z,8.33
2023-08-27T13:30:15.942Z,8.07
2023-08-27T13:32:43.829Z,8.57
2023-08-27T13:35:11.723Z,10.60
2023-08-27T13:37:39.670Z,8.30
2023-08-27T13:40:09.897Z,8.33
2023-08-27T13:42:37.825Z,8.73
2023-08-27T13:45:06.465Z,7.93
2023-08-27T13:47:34.530Z,8.20
2023-08-27T13:50:02.606Z,8.27
2023-08-27T13:52:31.046Z,8.40
2023-08-27T13:54:59.017Z,7.73
2023-08-27T13:57:28.519Z,7.90
2023-08-27T13:59:56.692Z,8.03
2023-08-27T14:02:24.650Z,8.00
2023-08-27T14:04:52.712Z,8.67
2023-08-27T14:07:20.568Z,7.47
2023-08-27T14:09:48.481Z,8.37
2023-08-27T14:12:16.926Z,8.50
2023-08-27T14:14:46.534Z,7.83
2023-08-27T14:17:14.494Z,8.60
2023-08-27T14:19:42.446Z,8.20
2023-08-27T14:22:10.411Z,9.30
2023-08-27T14:24:38.366Z,9.00
2023-08-27T14:27:06.612Z,7.60
2023-08-27T14:29:34.512Z,8.10
2023-08-27T14:32:04.571Z,7.87
2023-08-27T14:34:33.050Z,7.83
2023-08-27T14:37:01.158Z,8.60
2023-08-27T14:39:29.462Z,7.45
2023-08-27T14:41:57.394Z,7.40
2023-08-27T14:44:25.318Z,7.73
2023-08-27T14:46:53.314Z,8.60
2023-08-27T14:49:22.684Z,8.57
2023-08-27T14:51:50.600Z,7.38
2023-08-27T14:54:18.569Z,7.68
2023-08-27T14:56:47.025Z,8.07
2023-08-27T14:59:40.226Z,7.85
2023-08-27T15:02:09.580Z,8.10
2023-08-27T15:04:38.849Z,8.73
2023-08-27T15:07:06.998Z,7.40
2023-08-27T15:09:35.284Z,7.88
2023-08-27T15:12:03.752Z,7.40
2023-08-27T15:14:31.838Z,7.47
2023-08-27T15:16:59.708Z,7.03
2023-08-27T15:19:27.661Z,6.93
2023-08-27T15:21:56.907Z,6.80
2023-08-27T15:24:24.772Z,8.52
2023-08-27T15:26:52.693Z,7.70
2023-08-27T15:29:20.645Z,7.35
2023-08-27T15:31:48.649Z,7.47
2023-08-27T15:34:16.668Z,7.17
2023-08-27T15:36:44.535Z,7.50
2023-08-27T15:39:13.810Z,7.30
2023-08-27T15:41:41.855Z,7.30
2023-08-27T15:44:09.844Z,7.27
2023-08-27T15:46:37.919Z,7.13
2023-08-27T15:49:06.046Z,7.80
2023-08-27T15:51:34.025Z,6.80
2023-08-27T15:54:01.964Z,7.10
2023-08-27T15:56:31.295Z,7.77
2023-08-27T15:58:59.294Z,7.80
2023-08-27T16:01:27.222Z,6.33
2023-08-27T16:03:55.204Z,7.40
2023-08-27T16:06:23.664Z,7.50
2023-08-27T16:08:54.841Z,7.07
2023-08-27T16:11:23.121Z,7.47
2023-08-27T16:13:52.631Z,7.35
2023-08-27T16:16:23.288Z,7.43
2023-08-27T16:18:52.248Z,7.80
2023-08-27T16:21:20.249Z,6.82
2023-08-27T16:23:48.253Z,7.35
2023-08-27T16:26:16.421Z,7.32
2023-08-27T16:28:44.357Z,7.50
2023-08-27T16:31:19.827Z,7.07
2023-08-27T16:33:48.681Z,7.27
2023-08-27T16:36:16.610Z,7.43
2023-08-27T16:38:44.570Z,7.88
2023-08-27T16:41:12.794Z,8.40
2023-08-27T16:43:40.764Z,6.43
2023-08-27T16:46:08.795Z,7.80
2023-08-27T16:48:39.459Z,7.70
2023-08-27T16:51:08.399Z,7.10
2023-08-27T16:53:36.255Z,8.20
2023-08-27T16:56:04.226Z,7.00
2023-08-27T16:58:32.136Z,7.47
2023-08-27T17:01:00.033Z,7.93
2023-08-27T17:03:28.157Z,7.07
2023-08-27T17:05:58.622Z,7.50
2023-08-27T17:08:26.859Z,8.33
2023-08-27T17:10:55.015Z,8.00
2023-08-27T17:13:22.979Z,8.83
2023-08-27T17:15:50.907Z,8.90
2023-08-27T17:18:18.860Z,8.50
2023-08-27T17:20:50.617Z,8.53
2023-08-27T17:23:20.236Z,7.53
2023-08-27T17:25:48.149Z,7.80
2023-08-27T17:28:16.170Z,9.00
2023-08-27T17:30:44.135Z,7.67
2023-08-27T17:33:12.895Z,8.93
2023-08-27T17:35:41.311Z,8.83
2023-08-27T17:38:09.228Z,8.50
2023-08-27T17:40:39.496Z,8.37
2023-08-27T17:43:07.414Z,7.67
2023-08-27T17:45:35.444Z,8.13
2023-08-27T17:48:07.861Z,8.60
2023-08-27T17:50:36.057Z,7.60
2023-08-27T17:53:04.362Z,8.50
2023-08-27T17:55:32.442Z,7.97
2023-08-27T17:58:02.440Z,11.77
2023-08-27T18:00:30.748Z,14.60
2023-08-27T18:02:58.843Z,11.40
2023-08-27T18:05:26.906Z,10.10
2023-08-27T18:07:54.860Z,8.87
2023-08-27T18:10:22.944Z,8.70
2023-08-27T18:12:50.858Z,9.00
2023-08-27T18:15:20.405Z,10.17
2023-08-27T18:17:48.325Z,8.87
2023-08-27T18:20:16.419Z,8.37
2023-08-27T18:22:44.328Z,7.57
2023-08-27T18:25:12.232Z,8.17
2023-08-27T18:27:40.126Z,8.33
2023-08-27T18:30:09.322Z,7.33
2023-08-27T18:32:43.915Z,8.33
2023-08-27T18:35:11.970Z,9.20
2023-08-27T18:37:40.288Z,9.20
2023-08-27T18:40:09.589Z,25.87
2023-08-27T18:42:37.774Z,19.43
2023-08-27T18:45:06.567Z,11.87
2023-08-27T18:47:34.548Z,7.67
2023-08-27T18:50:04.388Z,12.27
2023-08-27T18:52:32.356Z,10.07
2023-08-27T18:55:02.191Z,9.23
2023-08-27T18:57:30.343Z,10.00
2023-08-27T18:59:58.363Z,8.70
2023-08-27T19:02:26.722Z,8.33
2023-08-27T19:04:54.750Z,7.83
2023-08-27T19:07:24.222Z,6.87
2023-08-27T19:09:52.084Z,8.30
2023-08-27T19:12:20.188Z,7.70
2023-08-27T19:14:48.056Z,7.07
2023-08-27T19:17:16.447Z,8.33
2023-08-27T19:19:44.705Z,7.80
2023-08-27T19:22:12.651Z,7.50
2023-08-27T19:24:43.594Z,9.00
2023-08-27T19:27:11.607Z,8.30
2023-08-27T19:29:39.513Z,8.53
2023-08-27T19:32:07.449Z,8.60
2023-08-27T19:34:35.405Z,8.13
2023-08-27T19:37:03.364Z,8.33
2023-08-27T19:39:31.260Z,9.13
2023-08-27T19:42:00.483Z,7.63
2023-08-27T19:44:28.406Z,8.33
2023-08-27T19:46:56.400Z,8.50
2023-08-27T19:49:24.328Z,7.17
2023-08-27T19:51:52.223Z,8.00
2023-08-27T19:54:20.334Z,7.63
2023-08-27T19:56:48.222Z,7.37
2023-08-27T19:59:19.817Z,8.43
2023-08-27T20:01:49.134Z,8.63
2023-08-27T20:04:17.820Z,8.83
2023-08-27T20:06:46.784Z,7.97
2023-08-27T20:09:14.957Z,7.97
2023-08-27T20:11:43.271Z,7.57
2023-08-27T20:14:11.206Z,7.60
2023-08-27T20:16:40.475Z,8.00
2023-08-27T20:19:08.428Z,8.57
2023-08-27T20:21:36.410Z,8.60
2023-08-27T20:24:05.241Z,7.90
2023-08-27T20:26:33.795Z,8.23
2023-08-27T20:29:01.921Z,7.87
2023-08-27T20:31:29.971Z,8.17
2023-08-27T20:33:59.429Z,8.40
2023-08-27T20:36:27.477Z,7.40
2023-08-27T20:38:55.417Z,7.13
2023-08-27T20:41:23.645Z,6.37
2023-08-27T20:43:52.269Z,6.33
2023-08-27T20:46:20.853Z,6.10
2023-08-27T20:48:48.749Z,6.77
2023-08-27T20:51:18.056Z,6.93
2023-08-27T20:53:46.371Z,6.60
2023-08-27T20:56:14.388Z,6.83
2023-08-27T20:58:42.447Z,5.80
2023-08-27T21:01:10.900Z,7.43
2023-08-27T21:03:39.397Z,6.70
2023-08-27T21:06:07.665Z,6.43
2023-08-27T21:08:36.949Z,7.07
2023-08-27T21:11:09.080Z,6.50
2023-08-27T21:13:37.637Z,6.40
2023-08-27T21:16:05.997Z,6.13
2023-08-27T21:18:34.037Z,6.20
2023-08-27T21:21:02.029Z,6.30
2023-08-27T21:23:29.968Z,6.97
2023-08-27T21:26:00.394Z,38.80
2023-08-27T21:28:28.474Z,7.47
2023-08-27T21:30:57.971Z,6.40
2023-08-27T21:33:28.736Z,7.10
2023-08-27T21:35:56.682Z,6.67
2023-08-27T21:38:24.592Z,6.37
2023-08-27T21:40:55.144Z,5.80
2023-08-27T21:43:24.436Z,6.27
2023-08-27T21:45:52.321Z,6.37
2023-08-27T21:48:20.308Z,6.20
2023-08-27T21:50:48.250Z,5.80
2023-08-27T21:53:16.700Z,6.63
2023-08-27T21:55:44.620Z,5.60
2023-08-27T21:58:12.495Z,7.60
2023-08-27T22:00:42.069Z,6.13
2023-08-27T22:03:10.020Z,6.30
2023-08-27T22:05:38.005Z,6.20
2023-08-27T22:08:06.761Z,6.10
2023-08-27T22:10:35.671Z,6.47
2023-08-27T22:13:05.370Z,6.80
2023-08-27T22:15:33.518Z,6.90
2023-08-27T22:18:02.960Z,6.37
2023-08-27T22:20:31.330Z,7.20
2023-08-27T22:22:59.759Z,7.13
2023-08-27T22:25:28.021Z,5.60
2023-08-27T22:27:55.926Z,6.23
2023-08-27T22:30:23.927Z,6.40
2023-08-27T22:32:51.949Z,7.03
2023-08-27T22:35:21.889Z,7.10
2023-08-27T22:37:49.898Z,6.30
2023-08-27T22:40:18.096Z,6.40
2023-08-27T22:42:46.765Z,6.60
2023-08-27T22:45:14.722Z,6.30
2023-08-27T22:47:42.729Z,6.20
2023-08-27T22:50:10.926Z,6.43
2023-08-27T22:52:40.352Z,6.47
2023-08-27T22:55:09.157Z,6.27
2023-08-27T22:57:37.079Z,5.93
2023-08-27T23:00:07.085Z,6.20
2023-08-27T23:02:35.032Z,6.63
2023-08-27T23:05:03.265Z,6.30
2023-08-27T23:07:31.405Z,7.23
2023-08-27T23:10:00.664Z,5.70
2023-08-27T23:12:28.565Z,6.30
2023-08-27T23:14:56.518Z,5.17
2023-08-27T23:17:24.543Z,6.20
2023-08-27T23:19:52.518Z,6.47
2023-08-27T23:22:20.426Z,6.90
2023-08-27T23:24:48.678Z,6.27
2023-08-27T23:27:17.997Z,7.17
2023-08-27T23:29:45.845Z,7.30
2023-08-27T23:32:13.839Z,6.60
2023-08-27T23:34:41.776Z,6.60
2023-08-27T23:37:09.766Z,6.57
2023-08-27T23:39:38.461Z,6.80
2023-08-27T23:42:06.653Z,7.13
2023-08-27T23:44:36.919Z,6.67
2023-08-27T23:47:05.440Z,7.40
2023-08-27T23:49:33.362Z,6.80
2023-08-27T23:52:01.309Z,6.87
2023-08-27T23:54:29.317Z,6.63
2023-08-27T23:56:57.307Z,6.30
2023-08-27T23:59:25.830Z,7.07
